Time;durP1;ratioP1;P1;durP2;ratioP2;P2;SDS_P1;SDS_P2;PMS_P1;PMS_P2;Temp;Humidity;BMP_temperature;BMP_pressure;BME280_temperature;BME280_humidity;BME280_pressure;Samples;Min_cycle;Max_cycle;Signal;HPM_P1;HPM_P2
2022/07/24 00:00:29;;;;;;;16.67;8.15;;;;;;;16.92;93.43;98744.56;5127611;28;20282;-67
2022/07/24 00:02:54;;;;;;;11.25;8.55;;;;;;;16.88;94.90;98745.63;5127605;28;20211;-67
2022/07/24 00:05:20;;;;;;;14.10;8.98;;;;;;;16.86;94.70;98743.97;5127411;28;20023;-67
2022/07/24 00:07:45;;;;;;;13.73;8.00;;;;;;;16.93;94.46;98746.28;5127512;28;20026;-67
2022/07/24 00:10:11;;;;;;;14.05;8.98;;;;;;;16.92;94.47;98759.66;5127420;28;20091;-67
2022/07/24 00:12:37;;;;;;;15.57;8.65;;;;;;;16.81;94.96;98757.44;5127597;28;20072;-67
2022/07/24 00:15:04;;;;;;;17.90;9.18;;;;;;;16.73;94.74;98756.91;5127311;28;20020;-67
2022/07/24 00:17:30;;;;;;;12.95;8.77;;;;;;;16.71;95.30;98752.59;5127273;28;20045;-67
2022/07/24 00:19:55;;;;;;;11.55;8.18;;;;;;;16.67;95.03;98751.84;5127229;28;20335;-67
2022/07/24 00:22:21;;;;;;;14.25;8.15;;;;;;;16.63;95.49;98752.91;5127168;28;20030;-67
2022/07/24 00:24:46;;;;;;;10.88;7.95;;;;;;;16.57;95.33;98753.16;5127024;28;20027;-67
2022/07/24 00:27:12;;;;;;;15.00;9.25;;;;;;;16.51;95.15;98753.41;5126986;28;20047;-67
2022/07/24 00:29:37;;;;;;;15.88;8.82;;;;;;;16.45;95.67;98753.66;5126917;28;20039;-67
2022/07/24 00:32:02;;;;;;;14.07;9.35;;;;;;;16.26;97.73;98747.31;5126983;28;20027;-67
2022/07/24 00:34:28;;;;;;;16.13;8.73;;;;;;;16.29;97.98;98752.53;5126930;28;20019;-67
2022/07/24 00:36:53;;;;;;;16.05;9.40;;;;;;;16.30;97.52;98745.44;5126947;28;20042;-67
2022/07/24 00:39:19;;;;;;;11.88;8.35;;;;;;;16.28;97.29;98744.63;5126913;28;20091;-67
2022/07/24 00:41:44;;;;;;;12.57;8.73;;;;;;;16.24;97.66;98748.31;5127040;28;20019;-67
2022/07/24 00:44:13;;;;;;;12.77;8.73;;;;;;;16.15;97.69;98749.56;5126710;28;20019;-67
2022/07/24 00:46:40;;;;;;;15.20;9.57;;;;;;;16.18;98.11;98748.56;5126665;28;20043;-67
2022/07/24 00:49:09;;;;;;;13.88;9.55;;;;;;;16.26;97.58;98751.81;5126668;28;20317;-67
2022/07/24 00:51:35;;;;;;;11.82;9.00;;;;;;;16.30;97.83;98754.25;5126638;28;20392;-67
2022/07/24 00:54:05;;;;;;;12.27;8.90;;;;;;;16.30;97.85;98748.94;5126571;28;20020;-67
2022/07/24 00:56:30;;;;;;;13.32;9.05;;;;;;;16.23;97.61;98741.28;5126417;28;20027;-67
2022/07/24 00:58:56;;;;;;;13.80;9.68;;;;;;;16.18;97.77;98749.44;5126028;28;20096;-67
2022/07/24 01:01:21;;;;;;;14.52;9.45;;;;;;;16.19;97.32;98745.84;5126382;28;20061;-67
2022/07/24 01:03:47;;;;;;;15.65;8.95;;;;;;;16.03;97.42;98739.41;5126279;28;20034;-67
2022/07/24 01:06:13;;;;;;;13.57;9.02;;;;;;;15.97;97.29;98744.97;5126318;28;20031;-67
2022/07/24 01:08:39;;;;;;;14.55;8.82;;;;;;;15.88;97.74;98745.31;5126885;28;20311;-67
2022/07/24 01:11:05;;;;;;;12.48;8.85;;;;;;;15.81;98.30;98748.25;5126217;28;20073;-67
2022/07/24 01:13:31;;;;;;;20.08;9.88;;;;;;;15.77;99.03;98750.19;5126179;28;20086;-67
2022/07/24 01:15:57;;;;;;;13.45;9.73;;;;;;;15.78;98.71;98743.94;5126182;28;20028;-67
2022/07/24 01:18:23;;;;;;;14.82;9.38;;;;;;;15.83;99.15;98752.63;5126162;28;20027;-67
2022/07/24 01:20:49;;;;;;;11.55;8.63;;;;;;;15.86;99.10;98747.19;5125998;28;20027;-67
2022/07/24 01:23:14;;;;;;;14.27;8.77;;;;;;;15.84;98.96;98749.03;5125902;28;20035;-67
2022/07/24 01:25:41;;;;;;;13.43;9.45;;;;;;;15.81;98.92;98746.50;5125898;28;20064;-67
2022/07/24 01:28:06;;;;;;;13.65;8.80;;;;;;;15.82;99.18;98750.03;5125651;28;20115;-67
2022/07/24 01:30:32;;;;;;;15.98;9.43;;;;;;;15.72;98.74;98754.78;5125843;28;20042;-67
2022/07/24 01:32:58;;;;;;;15.63;10.43;;;;;;;15.71;98.84;98753.06;5125793;28;20094;-67
2022/07/24 01:35:23;;;;;;;11.75;8.60;;;;;;;15.58;98.79;98751.81;5125722;28;20015;-67
2022/07/24 01:37:48;;;;;;;13.90;8.90;;;;;;;15.54;99.22;98758.16;5125708;28;20091;-67
2022/07/24 01:40:14;;;;;;;12.45;8.50;;;;;;;15.51;99.56;98752.09;5125642;28;20024;-67
2022/07/24 01:42:39;;;;;;;11.98;9.18;;;;;;;15.30;99.62;98756.34;5125594;28;20031;-67
2022/07/24 01:45:06;;;;;;;16.58;10.30;;;;;;;15.30;100.00;98751.06;5125496;28;20019;-67
2022/07/24 01:47:31;;;;;;;13.38;9.48;;;;;;;15.33;100.00;98758.03;5125510;28;20020;-67
2022/07/24 01:49:56;;;;;;;14.27;9.75;;;;;;;15.40;100.00;98762.25;5125405;28;20064;-67
2022/07/24 01:52:25;;;;;;;13.05;10.18;;;;;;;15.39;100.00;98761.38;5125466;28;20184;-67
2022/07/24 01:54:51;;;;;;;13.40;9.68;;;;;;;15.37;100.00;98757.88;5125465;28;20368;-67
2022/07/24 01:57:16;;;;;;;12.63;9.55;;;;;;;15.26;100.00;98760.06;5125287;28;20023;-67
2022/07/24 01:59:42;;;;;;;13.20;8.70;;;;;;;15.08;100.00;98758.03;5125384;28;20083;-67
2022/07/24 02:02:07;;;;;;;12.90;9.60;;;;;;;15.04;100.00;98754.63;5125216;28;20275;-67
2022/07/24 02:04:33;;;;;;;15.10;10.57;;;;;;;15.14;100.00;98755.19;5125074;28;20031;-67
2022/07/24 02:06:58;;;;;;;11.50;9.20;;;;;;;15.21;100.00;98756.69;5125097;28;20019;-67
2022/07/24 02:09:24;;;;;;;15.02;9.55;;;;;;;15.25;100.00;98753.00;5125365;28;20019;-67
2022/07/24 02:11:49;;;;;;;15.00;10.88;;;;;;;15.20;100.00;98752.31;5124130;28;20241;-67
2022/07/24 02:14:14;;;;;;;14.05;9.07;;;;;;;15.07;100.00;98751.03;5125264;28;20020;-67
2022/07/24 02:16:40;;;;;;;14.65;8.93;;;;;;;14.95;99.34;98749.66;5125121;28;20019;-67
2022/07/24 02:19:05;;;;;;;13.00;8.38;;;;;;;14.93;100.00;98750.63;5124912;28;20030;-67
2022/07/24 02:21:30;;;;;;;14.02;10.32;;;;;;;14.93;100.00;98754.16;5124931;28;20064;-67
2022/07/24 02:23:56;;;;;;;18.90;9.80;;;;;;;14.94;100.00;98757.66;5124826;28;20053;-67
2022/07/24 02:26:22;;;;;;;12.38;9.27;;;;;;;14.94;100.00;98752.38;5125092;28;20047;-67
2022/07/24 02:28:48;;;;;;;14.20;10.02;;;;;;;14.99;100.00;98761.00;5124637;28;20039;-67
2022/07/24 02:31:13;;;;;;;16.55;10.05;;;;;;;14.97;100.00;98757.56;5125027;28;20094;-67
2022/07/24 02:33:39;;;;;;;15.88;10.23;;;;;;;14.91;100.00;98757.78;5124978;28;20027;-67
2022/07/24 02:36:05;;;;;;;15.10;10.02;;;;;;;14.90;100.00;98761.31;5124684;28;20023;-67
2022/07/24 02:38:31;;;;;;;16.15;9.63;;;;;;;14.91;100.00;98760.44;5124699;28;20019;-67
2022/07/24 02:40:56;;;;;;;13.20;9.63;;;;;;;14.92;100.00;98764.78;5124635;28;20023;-67
2022/07/24 02:43:22;;;;;;;14.00;9.23;;;;;;;14.90;100.00;98771.91;5124533;28;20338;-67
2022/07/24 02:45:47;;;;;;;14.95;9.43;;;;;;;14.87;100.00;98769.38;5124610;28;20039;-69
2022/07/24 02:48:13;;;;;;;14.77;9.75;;;;;;;14.81;100.00;98766.97;5124703;28;20019;-67
2022/07/24 02:50:38;;;;;;;13.07;10.05;;;;;;;14.81;100.00;98773.09;5124517;28;20023;-67
2022/07/24 02:53:05;;;;;;;12.98;9.15;;;;;;;14.73;100.00;98766.34;5124464;28;20026;-67
2022/07/24 02:55:31;;;;;;;13.98;9.50;;;;;;;14.65;100.00;98765.75;5124761;28;20020;-67
2022/07/24 02:57:56;;;;;;;17.65;10.60;;;;;;;14.71;100.00;98770.81;5124499;28;20072;-67
2022/07/24 03:00:22;;;;;;;15.68;9.10;;;;;;;14.62;100.00;98776.44;5124862;28;20272;-67
2022/07/24 03:02:48;;;;;;;14.68;9.93;;;;;;;14.51;100.00;98773.25;5124458;28;20068;-67
2022/07/24 03:05:13;;;;;;;12.02;9.27;;;;;;;14.54;100.00;98773.16;5124305;28;20020;-67
2022/07/24 03:07:39;;;;;;;16.08;9.75;;;;;;;14.52;100.00;98773.22;5124642;28;20023;-67
2022/07/24 03:10:06;;;;;;;14.73;10.55;;;;;;;14.52;100.00;98775.00;5106199;28;20318;-69
2022/07/24 03:12:31;;;;;;;14.77;9.95;;;;;;;14.38;100.00;98761.34;5124283;28;20069;-67
2022/07/24 03:14:57;;;;;;;15.25;9.45;;;;;;;14.31;100.00;98762.47;5124348;28;20023;-67
2022/07/24 03:17:22;;;;;;;14.48;8.95;;;;;;;14.22;100.00;98765.38;5124304;28;20019;-67
2022/07/24 03:19:47;;;;;;;13.68;10.07;;;;;;;14.21;100.00;98779.53;5124314;28;20023;-67
2022/07/24 03:22:13;;;;;;;15.48;10.35;;;;;;;14.27;100.00;98779.38;5124513;28;20015;-67
2022/07/24 03:24:38;;;;;;;14.50;10.07;;;;;;;14.24;100.00;98784.75;5128220;28;20020;-67
2022/07/24 03:27:04;;;;;;;13.90;10.57;;;;;;;14.27;100.00;98782.88;5128230;28;20027;-67
2022/07/24 03:29:29;;;;;;;15.93;11.40;;;;;;;14.30;100.00;98779.28;5128093;28;20047;-67
2022/07/24 03:31:55;;;;;;;15.90;10.38;;;;;;;14.18;100.00;98774.31;5128173;28;20027;-67
2022/07/24 03:34:20;;;;;;;12.48;9.70;;;;;;;14.24;100.00;98774.16;5128177;28;20022;-67
2022/07/24 03:36:45;;;;;;;15.13;10.27;;;;;;;14.27;100.00;98784.66;5128073;28;20262;-67
2022/07/24 03:39:11;;;;;;;15.38;10.20;;;;;;;14.25;100.00;98775.91;5128157;28;20210;-67
2022/07/24 03:41:36;;;;;;;13.13;9.80;;;;;;;14.24;100.00;98782.13;5127987;28;20019;-67
2022/07/24 03:44:02;;;;;;;16.15;9.98;;;;;;;14.21;100.00;98780.38;5127843;28;20016;-67
2022/07/24 03:46:28;;;;;;;14.43;9.73;;;;;;;14.14;100.00;98780.63;5127930;28;20072;-68
2022/07/24 03:48:54;;;;;;;13.27;8.57;;;;;;;14.13;100.00;98781.53;5128120;28;20016;-67
2022/07/24 03:51:20;;;;;;;11.88;9.55;;;;;;;14.12;100.00;98787.75;5128045;28;20015;-67
2022/07/24 03:53:45;;;;;;;12.23;8.68;;;;;;;13.90;100.00;98784.91;5127796;28;20080;-67
2022/07/24 03:56:10;;;;;;;13.50;8.80;;;;;;;13.93;100.00;98789.22;5127702;28;20020;-67
2022/07/24 03:58:36;;;;;;;15.60;10.25;;;;;;;14.01;100.00;98793.38;5127620;28;20219;-67
2022/07/24 04:01:02;;;;;;;13.57;9.07;;;;;;;13.99;100.00;98794.34;5127661;28;20019;-67
2022/07/24 04:03:28;;;;;;;13.18;9.32;;;;;;;13.99;100.00;98794.34;5127477;28;20028;-67
2022/07/24 04:05:53;;;;;;;14.15;9.65;;;;;;;14.05;100.00;98788.84;5127517;28;20023;-68
2022/07/24 04:08:18;;;;;;;12.43;9.13;;;;;;;13.93;100.00;98789.22;5127515;28;20027;-67
2022/07/24 04:10:44;;;;;;;12.25;9.55;;;;;;;14.00;100.00;98790.75;5127485;28;20125;-67
2022/07/24 04:13:10;;;;;;;13.38;9.55;;;;;;;13.99;100.00;98789.88;5127648;28;20090;-67
2022/07/24 04:15:35;;;;;;;13.10;9.43;;;;;;;14.01;100.00;98797.78;5127279;28;20023;-67
2022/07/24 04:18:01;;;;;;;11.70;9.60;;;;;;;14.07;100.00;98800.25;5127292;28;20047;-67
2022/07/24 04:20:26;;;;;;;12.85;9.52;;;;;;;14.09;100.00;98801.06;5127230;28;20039;-67
2022/07/24 04:22:52;;;;;;;13.90;9.18;;;;;;;14.05;100.00;98788.84;5127200;28;20080;-67
2022/07/24 04:25:17;;;;;;;15.18;10.10;;;;;;;13.96;100.00;98789.13;5127042;28;20016;-67
2022/07/24 04:27:43;;;;;;;13.13;9.30;;;;;;;14.02;100.00;98794.25;5127069;28;20311;-67
2022/07/24 04:30:10;;;;;;;12.75;9.80;;;;;;;14.12;100.00;98790.41;5126874;28;20039;-67
2022/07/24 04:32:36;;;;;;;16.42;9.20;;;;;;;14.23;100.00;98790.94;5127025;28;20028;-68
2022/07/24 04:35:03;;;;;;;11.07;8.82;;;;;;;14.30;100.00;98784.56;5125861;28;20249;-67
2022/07/24 04:37:28;;;;;;;11.68;9.43;;;;;;;14.36;100.00;98792.28;5126890;28;20019;-67
2022/07/24 04:39:53;;;;;;;12.63;9.38;;;;;;;14.42;100.00;98789.44;5126888;28;20188;-67
2022/07/24 04:42:19;;;;;;;12.55;9.23;;;;;;;14.45;100.00;98789.34;5126872;28;20020;-68
2022/07/24 04:44:44;;;;;;;14.43;9.20;;;;;;;14.55;100.00;98796.06;5126787;28;20027;-67
2022/07/24 04:47:09;;;;;;;13.18;9.90;;;;;;;14.67;100.00;98795.69;5126741;28;20073;-67
2022/07/24 04:49:35;;;;;;;14.73;9.95;;;;;;;14.74;100.00;98794.56;5126670;28;20027;-67
2022/07/24 04:52:00;;;;;;;11.90;9.07;;;;;;;14.88;100.00;98810.88;5126654;28;20246;-67
2022/07/24 04:54:25;;;;;;;13.88;9.40;;;;;;;15.01;100.00;98801.59;5126593;28;20019;-67
2022/07/24 04:56:51;;;;;;;11.43;8.88;;;;;;;15.84;98.01;98804.75;5126563;28;20019;-67
2022/07/24 04:59:16;;;;;;;12.65;8.82;;;;;;;16.92;90.40;98803.06;5126542;28;20248;-67
2022/07/24 05:01:41;;;;;;;13.70;8.35;;;;;;;17.23;85.87;98798.19;5126597;28;20019;-67
2022/07/24 05:04:07;;;;;;;11.95;8.48;;;;;;;17.34;84.59;98799.50;5126340;28;20087;-67
2022/07/24 05:06:32;;;;;;;12.00;8.68;;;;;;;18.56;81.99;98808.03;5126454;28;20023;-67
2022/07/24 05:08:58;;;;;;;13.48;7.75;;;;;;;19.34;78.32;98808.53;5126308;28;20088;-67
2022/07/24 05:11:23;;;;;;;10.20;7.50;;;;;;;19.89;76.22;98804.66;5126334;28;20042;-67
2022/07/24 05:13:48;;;;;;;11.48;7.82;;;;;;;20.53;73.49;98805.59;5126169;28;20273;-67
2022/07/24 05:16:14;;;;;;;9.35;6.47;;;;;;;20.81;71.85;98809.25;5126167;28;20023;-67
2022/07/24 05:18:39;;;;;;;12.02;7.13;;;;;;;21.25;69.71;98802.19;5126097;28;20258;-67
2022/07/24 05:21:05;;;;;;;11.52;7.32;;;;;;;21.47;69.11;98800.88;5126028;28;20020;-67
2022/07/24 05:23:30;;;;;;;9.85;6.63;;;;;;;21.80;67.36;98805.09;5125978;28;20027;-67
2022/07/24 05:25:55;;;;;;;10.00;7.10;;;;;;;22.10;67.42;98805.00;5125960;28;20030;-67
2022/07/24 05:28:21;;;;;;;13.50;6.60;;;;;;;22.33;66.63;98804.41;5125710;28;20039;-67
2022/07/24 05:30:46;;;;;;;12.07;7.32;;;;;;;22.52;66.49;98811.22;5125895;28;20084;-67
2022/07/24 05:33:11;;;;;;;9.38;6.70;;;;;;;22.89;64.50;98815.03;5125952;28;20210;-67
2022/07/24 05:35:37;;;;;;;11.45;6.88;;;;;;;23.02;64.35;98810.56;5125753;28;20307;-67
2022/07/24 05:38:03;;;;;;;13.55;7.32;;;;;;;23.10;65.46;98819.00;5125734;28;20068;-67
2022/07/24 05:40:29;;;;;;;8.77;6.95;;;;;;;23.57;64.04;98813.94;5125683;28;20027;-67
2022/07/24 05:42:54;;;;;;;7.70;6.20;;;;;;;23.78;63.74;98819.66;5125639;28;20029;-67
2022/07/24 05:45:20;;;;;;;8.98;6.63;;;;;;;24.32;61.59;98822.06;5125351;28;20307;-67
2022/07/24 05:47:45;;;;;;;9.98;6.82;;;;;;;24.49;61.78;98827.06;5125773;28;20027;-67
2022/07/24 05:50:13;;;;;;;9.27;6.85;;;;;;;24.55;61.44;98815.84;5125552;28;20327;-67
2022/07/24 05:52:39;;;;;;;8.43;6.88;;;;;;;25.04;60.82;98824.78;5125461;28;20023;-67
2022/07/24 05:55:06;;;;;;;15.30;7.40;;;;;;;25.36;58.93;98824.19;5125359;28;20015;-67
2022/07/24 05:57:31;;;;;;;9.35;6.68;;;;;;;25.86;57.74;98829.25;5125337;28;20095;-67
2022/07/24 05:59:57;;;;;;;9.95;7.10;;;;;;;25.35;57.99;98817.09;5125346;28;20042;-67
2022/07/24 06:02:22;;;;;;;10.98;7.15;;;;;;;25.12;58.82;98816.97;5125311;28;20024;-67
2022/07/24 06:04:47;;;;;;;11.70;7.82;;;;;;;25.15;59.26;98816.75;5125063;28;20031;-67
2022/07/24 06:07:13;;;;;;;11.93;7.03;;;;;;;25.97;58.62;98829.31;5125424;28;20246;-67
2022/07/24 06:09:38;;;;;;;9.02;6.85;;;;;;;26.25;57.80;98827.00;5125147;28;20020;-67
2022/07/24 06:12:05;;;;;;;8.70;7.15;;;;;;;27.04;55.10;98837.63;5125087;28;20023;-67
2022/07/24 06:14:31;;;;;;;10.35;7.72;;;;;;;26.54;55.63;98822.00;5125005;28;20038;-67
2022/07/24 06:16:57;;;;;;;9.95;7.88;;;;;;;26.54;55.45;98827.41;5124998;28;20031;-67
2022/07/24 06:19:23;;;;;;;12.50;8.45;;;;;;;26.77;56.65;98827.25;5124953;28;20087;-67
2022/07/24 06:21:49;;;;;;;12.18;8.48;;;;;;;26.98;55.34;98827.31;5124919;28;20117;-67
2022/07/24 06:24:14;;;;;;;11.80;7.78;;;;;;;28.02;52.81;98827.41;5125091;28;20026;-67
2022/07/24 06:26:40;;;;;;;14.57;7.72;;;;;;;27.88;52.55;98819.63;5124880;28;20266;-67
2022/07/24 06:29:05;;;;;;;10.63;7.97;;;;;;;28.65;52.12;98821.75;5124610;28;20040;-67
2022/07/24 06:31:31;;;;;;;12.88;8.07;;;;;;;28.34;51.00;98817.31;5124778;28;20107;-67
2022/07/24 06:33:56;;;;;;;13.05;7.75;;;;;;;28.93;51.89;98826.38;5124743;28;20024;-67
2022/07/24 06:36:21;;;;;;;12.02;8.10;;;;;;;29.21;51.14;98820.16;5124736;28;20019;-67
2022/07/24 06:38:47;;;;;;;12.73;7.65;;;;;;;29.38;49.68;98820.50;5124935;28;20086;-67
2022/07/24 06:41:13;;;;;;;11.48;7.85;;;;;;;28.57;53.14;98813.44;5124636;28;20206;-67
2022/07/24 06:43:39;;;;;;;9.60;8.02;;;;;;;28.85;50.63;98822.63;5124751;28;20260;-67
2022/07/24 06:46:05;;;;;;;8.73;7.47;;;;;;;28.68;51.07;98810.63;5124598;28;20023;-67
2022/07/24 06:48:30;;;;;;;13.90;8.27;;;;;;;28.61;50.38;98814.91;5124579;28;20035;-67
2022/07/24 06:50:56;;;;;;;11.45;7.47;;;;;;;28.25;51.81;98810.00;5124538;28;20191;-67
2022/07/24 06:53:21;;;;;;;12.65;7.63;;;;;;;29.13;50.67;98820.03;5124519;28;20028;-67
2022/07/24 06:55:47;;;;;;;13.38;7.40;;;;;;;29.81;48.70;98823.63;5124547;28;20248;-67
2022/07/24 06:58:13;;;;;;;10.93;6.95;;;;;;;30.73;48.59;98831.81;5128663;28;20220;-67
2022/07/24 07:00:39;;;;;;;9.45;6.78;;;;;;;30.87;46.42;98825.88;5131580;28;20027;-67
2022/07/24 07:03:05;;;;;;;14.35;6.90;;;;;;;31.02;45.77;98824.34;5131307;28;20353;-67
2022/07/24 07:05:31;;;;;;;13.43;7.47;;;;;;;30.57;46.61;98812.56;5131166;28;20215;-67
2022/07/24 07:07:56;;;;;;;10.63;7.32;;;;;;;31.16;45.87;98831.97;5131256;28;20034;-67
2022/07/24 07:10:22;;;;;;;11.23;7.30;;;;;;;31.79;43.77;98819.22;5131225;28;20019;-67
2022/07/24 07:12:47;;;;;;;10.52;7.10;;;;;;;32.31;42.72;98821.84;5131165;28;20019;-67
2022/07/24 07:15:13;;;;;;;10.45;7.15;;;;;;;32.44;42.37;98827.72;5131175;28;20023;-68
2022/07/24 07:17:40;;;;;;;13.63;7.70;;;;;;;32.52;42.29;98825.03;5131414;28;20020;-68
2022/07/24 07:20:07;;;;;;;11.13;7.78;;;;;;;32.94;42.57;98825.09;5131132;28;20026;-68
2022/07/24 07:22:33;;;;;;;8.88;7.03;;;;;;;32.00;42.24;98828.75;5131064;28;20019;-68
2022/07/24 07:24:58;;;;;;;10.55;7.80;;;;;;;32.67;42.42;98817.97;5131246;28;20331;-68
2022/07/24 07:27:24;;;;;;;13.25;8.05;;;;;;;32.69;42.53;98829.56;5131000;28;20269;-68
2022/07/24 07:29:49;;;;;;;14.10;7.88;;;;;;;33.63;41.11;98827.50;5130874;28;20039;-68
2022/07/24 07:32:14;;;;;;;14.93;8.50;;;;;;;33.48;40.19;98823.72;5131060;28;20023;-68
2022/07/24 07:34:40;;;;;;;12.13;8.18;;;;;;;34.08;38.56;98827.84;5131004;28;20047;-68
2022/07/24 07:37:06;;;;;;;12.20;7.68;;;;;;;34.47;39.81;98828.81;5130949;28;20023;-68
2022/07/24 07:39:32;;;;;;;10.52;7.60;;;;;;;34.77;38.48;98819.84;5131199;28;20315;-68
2022/07/24 07:41:57;;;;;;;9.77;7.43;;;;;;;35.03;37.82;98825.91;5130929;28;20030;-68
2022/07/24 07:44:22;;;;;;;13.05;8.27;;;;;;;34.09;40.18;98824.06;5130827;28;20319;-68
2022/07/24 07:46:48;;;;;;;15.82;7.93;;;;;;;34.07;39.06;98820.69;5112663;28;20030;-68
2022/07/24 07:49:13;;;;;;;12.80;7.72;;;;;;;34.60;39.31;98820.91;5130850;28;20026;-68
2022/07/24 07:51:39;;;;;;;13.07;7.43;;;;;;;35.15;38.45;98829.97;5130800;28;20023;-68
2022/07/24 07:54:04;;;;;;;9.35;6.75;;;;;;;35.02;38.87;98824.22;5130822;28;20324;-68
2022/07/24 07:56:31;;;;;;;9.93;7.72;;;;;;;35.06;37.72;98820.09;5130814;28;20319;-68
2022/07/24 07:58:56;;;;;;;13.20;6.90;;;;;;;35.26;37.89;98826.81;5130975;28;20046;-68
2022/07/24 08:01:22;;;;;;;11.48;7.97;;;;;;;34.88;38.03;98824.94;5130742;28;20342;-68
2022/07/24 08:03:48;;;;;;;14.05;7.47;;;;;;;35.33;37.25;98832.44;5130595;28;20026;-68
2022/07/24 08:06:13;;;;;;;10.50;7.13;;;;;;;35.55;37.14;98834.38;5130757;28;20326;-68
2022/07/24 08:08:39;;;;;;;9.95;7.10;;;;;;;35.26;37.34;98832.28;5129920;28;20376;-68
2022/07/24 08:11:04;;;;;;;10.20;7.97;;;;;;;35.21;37.15;98829.25;5127450;28;20023;-68
2022/07/24 08:13:30;;;;;;;10.13;7.60;;;;;;;35.41;37.79;98840.59;5127383;28;20026;-68
2022/07/24 08:15:56;;;;;;;9.80;7.05;;;;;;;35.82;37.88;98829.22;5127419;28;20028;-68
2022/07/24 08:18:21;;;;;;;11.20;7.18;;;;;;;35.47;36.69;98824.31;5127544;28;20062;-68
2022/07/24 08:20:47;;;;;;;11.02;7.30;;;;;;;35.16;38.50;98830.78;5127241;28;20019;-68
2022/07/24 08:23:12;;;;;;;10.00;6.80;;;;;;;35.67;36.11;98828.25;5127289;28;20027;-68
2022/07/24 08:25:38;;;;;;;8.20;6.97;;;;;;;35.71;35.43;98821.38;5127099;28;20024;-68
2022/07/24 08:28:03;;;;;;;8.65;6.65;;;;;;;35.88;35.32;98823.00;5126906;28;20015;-68
2022/07/24 08:30:29;;;;;;;9.93;6.47;;;;;;;35.35;36.33;98814.81;5127102;28;20091;-68
2022/07/24 08:32:54;;;;;;;8.48;6.65;;;;;;;35.52;35.41;98821.88;5127126;28;20027;-68
2022/07/24 08:35:20;;;;;;;12.30;7.00;;;;;;;36.04;35.64;98822.00;5126985;28;20196;-68
2022/07/24 08:37:46;;;;;;;10.45;6.45;;;;;;;35.74;35.79;98822.91;5127192;28;20086;-68
2022/07/24 08:40:12;;;;;;;9.40;6.95;;;;;;;36.03;35.17;98821.13;5127010;28;20027;-68
2022/07/24 08:42:38;;;;;;;8.10;6.45;;;;;;;36.12;35.79;98817.28;5126856;28;20023;-68
2022/07/24 08:45:05;;;;;;;8.90;5.90;;;;;;;36.32;34.81;98809.41;5126798;28;20023;-68
2022/07/24 08:47:32;;;;;;;9.82;6.30;;;;;;;36.38;35.22;98820.47;5126713;28;20033;-68
2022/07/24 08:49:58;;;;;;;8.85;6.18;;;;;;;36.39;34.61;98808.47;5126964;28;20038;-68
2022/07/24 08:52:24;;;;;;;8.55;6.28;;;;;;;36.50;34.92;98807.13;5126694;28;20020;-68
2022/07/24 08:54:50;;;;;;;12.50;7.28;;;;;;;36.45;34.64;98799.50;5126594;28;20016;-68
2022/07/24 08:57:16;;;;;;;7.10;6.25;;;;;;;36.34;35.11;98808.19;5126575;28;20142;-68
2022/07/24 08:59:41;;;;;;;10.25;7.30;;;;;;;35.81;36.14;98811.03;5126532;28;20023;-68
2022/07/24 09:02:07;;;;;;;11.70;6.75;;;;;;;35.60;36.22;98813.59;5126463;28;20064;-68
2022/07/24 09:04:44;;;;;;;11.50;6.88;;;;;;;35.79;34.84;98804.88;5126373;28;20035;-68
2022/07/24 09:07:17;;;;;;;11.00;5.97;;;;;;;36.27;34.43;98809.97;5126642;28;20312;-68
2022/07/24 09:09:44;;;;;;;11.40;6.18;;;;;;;36.51;34.50;98804.19;5126391;28;20027;-68
2022/07/24 09:12:15;;;;;;;8.57;5.65;;;;;;;36.59;32.37;98801.38;5126285;28;20020;-68
2022/07/24 09:14:46;;;;;;;7.93;6.15;;;;;;;36.73;31.94;98808.78;5126506;28;20359;-68
2022/07/24 09:17:19;;;;;;;10.77;6.63;;;;;;;35.82;34.85;98801.81;5126202;28;20026;-68
2022/07/24 09:19:58;;;;;;;10.07;6.50;;;;;;;36.39;34.31;98805.75;5126078;28;20030;-68
2022/07/24 09:22:38;;;;;;;10.20;6.40;;;;;;;36.09;33.46;98792.97;5126156;28;20054;-68
2022/07/24 09:25:06;;;;;;;10.95;6.40;;;;;;;36.21;33.38;98799.72;5125998;28;20056;-68
2022/07/24 09:27:34;;;;;;;7.63;6.45;;;;;;;36.81;33.26;98802.34;5125933;28;20019;-68
2022/07/24 09:29:59;;;;;;;10.30;6.10;;;;;;;36.96;32.00;98797.69;5125729;28;20040;-68
2022/07/24 09:32:25;;;;;;;10.68;6.38;;;;;;;35.65;33.73;98794.72;5125913;28;20050;-68
2022/07/24 09:34:52;;;;;;;8.18;5.93;;;;;;;36.62;33.31;98792.78;5125900;28;20019;-68
2022/07/24 09:37:19;;;;;;;10.48;6.18;;;;;;;36.88;31.82;98799.69;5125791;28;20019;-68
2022/07/24 09:39:44;;;;;;;7.53;5.72;;;;;;;35.27;33.54;98798.38;5125856;28;20087;-68
2022/07/24 09:42:10;;;;;;;9.57;6.15;;;;;;;36.20;33.58;98798.03;5125643;28;20024;-68
2022/07/24 09:44:36;;;;;;;8.85;5.78;;;;;;;35.98;33.17;98787.09;5125584;28;20042;-68
2022/07/24 09:47:06;;;;;;;9.35;5.45;;;;;;;36.80;32.66;98793.28;5125568;28;20027;-68
2022/07/24 09:49:33;;;;;;;6.95;5.47;;;;;;;37.07;30.97;98797.19;5125589;28;20083;-68
2022/07/24 09:52:06;;;;;;;7.60;4.97;;;;;;;36.54;30.48;98779.13;5107446;28;20048;-68
2022/07/24 09:54:34;;;;;;;8.57;5.25;;;;;;;36.19;30.44;98777.09;5125673;28;20260;-68
2022/07/24 09:57:25;;;;;;;8.00;4.60;;;;;;;36.84;30.74;98789.09;5125393;28;20043;-68
2022/07/24 09:59:59;;;;;;;6.85;4.43;;;;;;;37.51;30.23;98786.09;5125335;28;20024;-68
2022/07/24 10:02:28;;;;;;;6.40;4.70;;;;;;;37.02;29.05;98777.72;5125327;28;20068;-68
2022/07/24 10:04:53;;;;;;;7.10;4.88;;;;;;;37.15;29.49;98786.09;5125226;28;20034;-68
2022/07/24 10:07:21;;;;;;;11.00;4.63;;;;;;;36.70;29.10;98778.09;5125207;28;20285;-68
2022/07/24 10:09:49;;;;;;;7.22;4.45;;;;;;;36.86;29.92;98776.03;5125182;28;20327;-68
2022/07/24 10:12:20;;;;;;;6.97;4.53;;;;;;;37.02;28.80;98772.22;5125179;28;20050;-68
2022/07/24 10:14:48;;;;;;;7.50;4.72;;;;;;;36.57;29.75;98769.69;5125127;28;20020;-68
2022/07/24 10:17:14;;;;;;;6.22;4.32;;;;;;;36.14;29.84;98760.41;5124917;28;20023;-68
2022/07/24 10:19:51;;;;;;;9.52;5.20;;;;;;;36.25;30.88;98765.41;5124973;28;20051;-68
2022/07/24 10:22:20;;;;;;;7.68;4.28;;;;;;;36.36;29.91;98756.75;5125015;28;20031;-68
2022/07/24 10:25:05;;;;;;;6.97;4.88;;;;;;;36.07;30.41;98766.81;5124899;28;20064;-68
2022/07/24 10:27:36;;;;;;;8.88;4.85;;;;;;;36.23;31.16;98762.00;5124670;28;20038;-68
2022/07/24 10:30:07;;;;;;;8.43;5.07;;;;;;;36.14;31.75;98757.66;5124733;28;20231;-68
2022/07/24 10:32:34;;;;;;;6.38;4.68;;;;;;;36.85;31.68;98766.09;5123938;28;20027;-68
2022/07/24 10:35:17;;;;;;;7.03;4.68;;;;;;;37.05;30.75;98762.75;5124823;28;20011;-68
2022/07/24 10:38:07;;;;;;;7.40;5.10;;;;;;;37.47;29.09;98751.81;5124801;28;20019;-68
2022/07/24 10:40:51;;;;;;;10.13;4.93;;;;;;;36.63;30.79;98752.50;5124723;28;20102;-68
2022/07/24 10:43:19;;;;;;;5.97;4.68;;;;;;;36.41;29.92;98747.97;5124626;28;20051;-68
2022/07/24 10:45:47;;;;;;;7.28;5.10;;;;;;;36.26;29.84;98742.44;5124884;28;20362;-68
2022/07/24 10:48:21;;;;;;;9.00;4.55;;;;;;;36.21;31.67;98747.63;5124649;28;20024;-68
2022/07/24 10:50:59;;;;;;;8.57;4.80;;;;;;;35.94;30.19;98734.53;5124577;28;20364;-68
2022/07/24 10:53:42;;;;;;;7.25;4.80;;;;;;;35.33;31.13;98728.44;5124758;28;20081;-68
2022/07/24 10:56:38;;;;;;;10.48;4.93;;;;;;;35.78;30.55;98740.16;5124491;28;20028;-68
2022/07/24 10:59:11;;;;;;;8.23;4.45;;;;;;;35.35;32.72;98732.69;5124520;28;20319;-68
2022/07/24 11:01:44;;;;;;;6.05;4.88;;;;;;;35.86;31.61;98726.44;5124461;28;20298;-68
2022/07/24 11:04:19;;;;;;;9.35;5.10;;;;;;;35.89;30.77;98726.06;5124621;28;20028;-68
2022/07/24 11:06:48;;;;;;;9.57;4.85;;;;;;;35.55;30.78;98716.59;5124479;28;20019;-68
2022/07/24 11:09:15;;;;;;;6.60;4.72;;;;;;;35.12;30.65;98726.31;5124474;28;20047;-68
2022/07/24 11:12:07;;;;;;;10.45;4.78;;;;;;;35.39;31.33;98728.53;5124351;28;20219;-68
2022/07/24 11:14:38;;;;;;;12.23;4.80;;;;;;;35.22;31.53;98715.97;5120305;28;20059;-68
2022/07/24 11:17:35;;;;;;;7.53;4.72;;;;;;;35.19;31.92;98710.00;5124370;28;20068;-68
2022/07/24 11:20:02;;;;;;;11.18;4.40;;;;;;;35.45;31.53;98711.38;5124344;28;20016;-68
2022/07/24 11:22:40;;;;;;;10.00;5.20;;;;;;;35.41;31.25;98707.31;5124598;28;20366;-68